sensor_id;sensor_type;location;lat;lon;timestamp;temperature;humidity
32428;DHT22;18882;50.952;4.366;2022-10-31T00:00:20;15.30;99.90
32428;DHT22;18882;50.952;4.366;2022-10-31T00:02:45;15.40;99.90
32428;DHT22;18882;50.952;4.366;2022-10-31T00:05:11;15.50;99.90
32428;DHT22;18882;50.952;4.366;2022-10-31T00:07:37;15.50;99.90
32428;DHT22;18882;50.952;4.366;2022-10-31T00:10:02;15.40;99.90
32428;DHT22;18882;50.952;4.366;2022-10-31T00:12:28;15.40;99.90
32428;DHT22;18882;50.952;4.366;2022-10-31T00:14:54;15.30;99.90
32428;DHT22;18882;50.952;4.366;2022-10-31T00:17:19;15.20;99.90
32428;DHT22;18882;50.952;4.366;2022-10-31T00:19:45;15.30;99.90
32428;DHT22;18882;50.952;4.366;2022-10-31T00:22:11;15.20;99.90
32428;DHT22;18882;50.952;4.366;2022-10-31T00:24:36;15.00;99.90
32428;DHT22;18882;50.952;4.366;2022-10-31T00:27:02;14.90;99.90
32428;DHT22;18882;50.952;4.366;2022-10-31T00:29:27;15.00;99.90
32428;DHT22;18882;50.952;4.366;2022-10-31T00:31:53;15.10;99.90
32428;DHT22;18882;50.952;4.366;2022-10-31T00:34:19;15.00;99.90
32428;DHT22;18882;50.952;4.366;2022-10-31T00:36:44;14.80;99.90
32428;DHT22;18882;50.952;4.366;2022-10-31T00:39:10;14.70;99.90
32428;DHT22;18882;50.952;4.366;2022-10-31T00:41:35;14.60;99.90
32428;DHT22;18882;50.952;4.366;2022-10-31T00:44:01;14.60;99.90
32428;DHT22;18882;50.952;4.366;2022-10-31T00:46:27;14.50;99.90
32428;DHT22;18882;50.952;4.366;2022-10-31T00:48:52;14.50;99.90
32428;DHT22;18882;50.952;4.366;2022-10-31T00:51:18;14.50;99.90
32428;DHT22;18882;50.952;4.366;2022-10-31T00:53:43;14.50;99.90
32428;DHT22;18882;50.952;4.366;2022-10-31T00:56:09;14.40;99.90
32428;DHT22;18882;50.952;4.366;2022-10-31T00:58:35;14.40;99.90
32428;DHT22;18882;50.952;4.366;2022-10-31T01:01:01;14.40;99.90
32428;DHT22;18882;50.952;4.366;2022-10-31T01:03:29;14.30;99.90
32428;DHT22;18882;50.952;4.366;2022-10-31T01:06:10;14.20;99.90
32428;DHT22;18882;50.952;4.366;2022-10-31T01:08:37;14.10;99.90
32428;DHT22;18882;50.952;4.366;2022-10-31T01:11:15;14.20;99.90
32428;DHT22;18882;50.952;4.366;2022-10-31T01:13:41;14.20;99.90
32428;DHT22;18882;50.952;4.366;2022-10-31T01:16:10;14.20;99.90
32428;DHT22;18882;50.952;4.366;2022-10-31T01:18:36;14.10;99.90
32428;DHT22;18882;50.952;4.366;2022-10-31T01:21:07;14.10;99.90
32428;DHT22;18882;50.952;4.366;2022-10-31T01:23:33;14.00;99.90
32428;DHT22;18882;50.952;4.366;2022-10-31T01:26:11;14.00;99.90
32428;DHT22;18882;50.952;4.366;2022-10-31T01:28:40;14.00;99.90
32428;DHT22;18882;50.952;4.366;2022-10-31T01:31:08;14.00;99.90
32428;DHT22;18882;50.952;4.366;2022-10-31T01:33:35;14.00;99.90
32428;DHT22;18882;50.952;4.366;2022-10-31T01:36:10;14.00;99.90
32428;DHT22;18882;50.952;4.366;2022-10-31T01:38:36;13.90;99.90
32428;DHT22;18882;50.952;4.366;2022-10-31T01:41:02;13.80;99.90
32428;DHT22;18882;50.952;4.366;2022-10-31T01:43:50;13.80;99.90
32428;DHT22;18882;50.952;4.366;2022-10-31T01:46:20;13.80;99.90
32428;DHT22;18882;50.952;4.366;2022-10-31T01:48:47;13.70;99.90
32428;DHT22;18882;50.952;4.366;2022-10-31T01:51:14;13.70;99.90
32428;DHT22;18882;50.952;4.366;2022-10-31T01:53:42;13.70;99.90
32428;DHT22;18882;50.952;4.366;2022-10-31T01:56:09;13.70;99.90
32428;DHT22;18882;50.952;4.366;2022-10-31T01:58:35;13.60;99.90
32428;DHT22;18882;50.952;4.366;2022-10-31T02:01:01;13.50;99.90
32428;DHT22;18882;50.952;4.366;2022-10-31T02:03:28;13.50;99.90
32428;DHT22;18882;50.952;4.366;2022-10-31T02:05:55;13.50;99.90
32428;DHT22;18882;50.952;4.366;2022-10-31T02:08:29;13.50;99.90
32428;DHT22;18882;50.952;4.366;2022-10-31T02:10:57;13.50;99.90
32428;DHT22;18882;50.952;4.366;2022-10-31T02:13:23;13.40;99.90
32428;DHT22;18882;50.952;4.366;2022-10-31T02:15:52;13.40;99.90
32428;DHT22;18882;50.952;4.366;2022-10-31T02:18:18;13.30;99.90
32428;DHT22;18882;50.952;4.366;2022-10-31T02:20:59;13.30;99.90
32428;DHT22;18882;50.952;4.366;2022-10-31T02:32:04;13.20;99.90
32428;DHT22;18882;50.952;4.366;2022-10-31T02:40:21;13.20;99.90
32428;DHT22;18882;50.952;4.366;2022-10-31T02:42:48;13.10;99.90
32428;DHT22;18882;50.952;4.366;2022-10-31T02:48:00;13.10;99.90
32428;DHT22;18882;50.952;4.366;2022-10-31T02:50:31;13.10;99.90
32428;DHT22;18882;50.952;4.366;2022-10-31T02:52:58;13.00;99.90
32428;DHT22;18882;50.952;4.366;2022-10-31T02:57:59;13.10;99.90
32428;DHT22;18882;50.952;4.366;2022-10-31T03:00:27;13.10;99.90
32428;DHT22;18882;50.952;4.366;2022-10-31T03:03:11;13.00;99.90
32428;DHT22;18882;50.952;4.366;2022-10-31T03:11:13;12.80;99.90
32428;DHT22;18882;50.952;4.366;2022-10-31T03:13:55;12.80;99.90
32428;DHT22;18882;50.952;4.366;2022-10-31T03:16:33;12.70;99.90
32428;DHT22;18882;50.952;4.366;2022-10-31T03:19:09;12.80;99.90
32428;DHT22;18882;50.952;4.366;2022-10-31T03:21:39;12.70;99.90
32428;DHT22;18882;50.952;4.366;2022-10-31T03:24:08;12.70;99.90
32428;DHT22;18882;50.952;4.366;2022-10-31T03:26:37;12.70;99.90
32428;DHT22;18882;50.952;4.366;2022-10-31T03:29:06;12.60;99.90
32428;DHT22;18882;50.952;4.366;2022-10-31T03:31:37;12.60;99.90
32428;DHT22;18882;50.952;4.366;2022-10-31T03:34:06;12.50;99.90
32428;DHT22;18882;50.952;4.366;2022-10-31T03:36:34;12.50;99.90
32428;DHT22;18882;50.952;4.366;2022-10-31T03:39:04;12.30;99.90
32428;DHT22;18882;50.952;4.366;2022-10-31T03:41:34;12.30;99.90
32428;DHT22;18882;50.952;4.366;2022-10-31T03:44:08;12.20;99.90
32428;DHT22;18882;50.952;4.366;2022-10-31T03:46:34;12.10;99.90
32428;DHT22;18882;50.952;4.366;2022-10-31T03:49:00;12.10;99.90
32428;DHT22;18882;50.952;4.366;2022-10-31T03:51:46;12.10;99.90
32428;DHT22;18882;50.952;4.366;2022-10-31T03:54:42;12.10;99.90
32428;DHT22;18882;50.952;4.366;2022-10-31T04:00:06;12.00;99.90
32428;DHT22;18882;50.952;4.366;2022-10-31T04:02:33;12.00;99.90
32428;DHT22;18882;50.952;4.366;2022-10-31T04:05:00;12.00;99.90
32428;DHT22;18882;50.952;4.366;2022-10-31T04:07:31;12.10;99.90
32428;DHT22;18882;50.952;4.366;2022-10-31T04:10:02;12.20;99.90
32428;DHT22;18882;50.952;4.366;2022-10-31T04:12:29;11.90;99.90
32428;DHT22;18882;50.952;4.366;2022-10-31T04:14:56;11.80;99.90
32428;DHT22;18882;50.952;4.366;2022-10-31T04:17:23;11.90;99.90
32428;DHT22;18882;50.952;4.366;2022-10-31T04:19:55;12.00;99.90
32428;DHT22;18882;50.952;4.366;2022-10-31T04:22:24;12.20;99.90
32428;DHT22;18882;50.952;4.366;2022-10-31T04:24:49;12.20;99.90
32428;DHT22;18882;50.952;4.366;2022-10-31T04:27:15;12.20;99.90
32428;DHT22;18882;50.952;4.366;2022-10-31T04:29:40;12.00;99.90
32428;DHT22;18882;50.952;4.366;2022-10-31T04:32:06;11.90;99.90
32428;DHT22;18882;50.952;4.366;2022-10-31T04:34:31;11.90;99.90
32428;DHT22;18882;50.952;4.366;2022-10-31T04:36:57;11.80;99.90
32428;DHT22;18882;50.952;4.366;2022-10-31T04:39:23;12.00;99.90
32428;DHT22;18882;50.952;4.366;2022-10-31T04:41:48;12.00;99.90
32428;DHT22;18882;50.952;4.366;2022-10-31T04:44:15;12.10;99.90
32428;DHT22;18882;50.952;4.366;2022-10-31T04:46:40;12.00;99.90
32428;DHT22;18882;50.952;4.366;2022-10-31T04:49:06;12.00;99.90
32428;DHT22;18882;50.952;4.366;2022-10-31T04:51:32;11.80;99.90
32428;DHT22;18882;50.952;4.366;2022-10-31T04:53:57;11.70;99.90
32428;DHT22;18882;50.952;4.366;2022-10-31T04:56:23;11.70;99.90
32428;DHT22;18882;50.952;4.366;2022-10-31T04:58:49;11.70;99.90
32428;DHT22;18882;50.952;4.366;2022-10-31T05:01:14;11.80;99.90
32428;DHT22;18882;50.952;4.366;2022-10-31T05:03:40;11.80;99.90
32428;DHT22;18882;50.952;4.366;2022-10-31T05:06:06;11.80;99.90
32428;DHT22;18882;50.952;4.366;2022-10-31T05:08:32;11.70;99.90
32428;DHT22;18882;50.952;4.366;2022-10-31T05:11:02;11.70;99.90
32428;DHT22;18882;50.952;4.366;2022-10-31T05:13:28;11.70;99.90
32428;DHT22;18882;50.952;4.366;2022-10-31T05:15:54;11.80;99.90
32428;DHT22;18882;50.952;4.366;2022-10-31T05:18:19;11.80;99.90
32428;DHT22;18882;50.952;4.366;2022-10-31T05:20:45;12.00;99.90
32428;DHT22;18882;50.952;4.366;2022-10-31T05:23:11;12.00;99.90
32428;DHT22;18882;50.952;4.366;2022-10-31T05:25:36;12.00;99.90
32428;DHT22;18882;50.952;4.366;2022-10-31T05:28:02;12.00;99.90
32428;DHT22;18882;50.952;4.366;2022-10-31T05:30:30;12.00;99.90
32428;DHT22;18882;50.952;4.366;2022-10-31T05:32:56;12.00;99.90
32428;DHT22;18882;50.952;4.366;2022-10-31T05:35:27;12.10;99.90
32428;DHT22;18882;50.952;4.366;2022-10-31T05:37:53;12.20;99.90
32428;DHT22;18882;50.952;4.366;2022-10-31T05:40:20;12.20;99.90
32428;DHT22;18882;50.952;4.366;2022-10-31T05:42:46;12.30;99.90
32428;DHT22;18882;50.952;4.366;2022-10-31T05:45:16;12.40;99.90
32428;DHT22;18882;50.952;4.366;2022-10-31T05:47:49;12.50;99.90
32428;DHT22;18882;50.952;4.366;2022-10-31T05:50:15;12.60;99.90
32428;DHT22;18882;50.952;4.366;2022-10-31T05:52:40;12.60;99.90
32428;DHT22;18882;50.952;4.366;2022-10-31T05:55:06;12.60;99.90
32428;DHT22;18882;50.952;4.366;2022-10-31T05:57:32;12.60;99.90
32428;DHT22;18882;50.952;4.366;2022-10-31T05:59:58;12.60;99.90
32428;DHT22;18882;50.952;4.366;2022-10-31T06:02:24;12.60;99.90
32428;DHT22;18882;50.952;4.366;2022-10-31T06:04:50;12.60;99.90
32428;DHT22;18882;50.952;4.366;2022-10-31T06:07:16;12.60;99.90
32428;DHT22;18882;50.952;4.366;2022-10-31T06:09:41;12.70;99.90
32428;DHT22;18882;50.952;4.366;2022-10-31T06:12:07;12.80;99.90
32428;DHT22;18882;50.952;4.366;2022-10-31T06:14:33;12.90;99.90
32428;DHT22;18882;50.952;4.366;2022-10-31T06:16:58;13.00;99.90
32428;DHT22;18882;50.952;4.366;2022-10-31T06:19:24;13.00;99.90
32428;DHT22;18882;50.952;4.366;2022-10-31T06:21:49;13.10;99.90
32428;DHT22;18882;50.952;4.366;2022-10-31T06:24:15;13.10;99.90
32428;DHT22;18882;50.952;4.366;2022-10-31T06:26:41;13.10;99.90
32428;DHT22;18882;50.952;4.366;2022-10-31T06:29:07;13.10;99.90
32428;DHT22;18882;50.952;4.366;2022-10-31T06:31:32;12.90;99.90
32428;DHT22;18882;50.952;4.366;2022-10-31T06:33:58;12.90;99.90
32428;DHT22;18882;50.952;4.366;2022-10-31T06:36:24;12.90;99.90
32428;DHT22;18882;50.952;4.366;2022-10-31T06:38:49;12.80;99.90
32428;DHT22;18882;50.952;4.366;2022-10-31T06:41:15;12.80;99.90
32428;DHT22;18882;50.952;4.366;2022-10-31T06:43:40;12.50;99.90
32428;DHT22;18882;50.952;4.366;2022-10-31T06:46:06;12.70;99.90
32428;DHT22;18882;50.952;4.366;2022-10-31T06:48:32;13.00;99.90
32428;DHT22;18882;50.952;4.366;2022-10-31T06:50:59;12.90;99.90
32428;DHT22;18882;50.952;4.366;2022-10-31T06:53:25;13.00;99.90
32428;DHT22;18882;50.952;4.366;2022-10-31T06:55:51;12.90;99.90
32428;DHT22;18882;50.952;4.366;2022-10-31T06:58:16;13.00;99.90
32428;DHT22;18882;50.952;4.366;2022-10-31T07:00:42;13.00;99.90
32428;DHT22;18882;50.952;4.366;2022-10-31T07:03:12;13.00;99.90
32428;DHT22;18882;50.952;4.366;2022-10-31T07:05:39;13.10;99.90
32428;DHT22;18882;50.952;4.366;2022-10-31T07:08:07;13.10;99.90
32428;DHT22;18882;50.952;4.366;2022-10-31T07:10:34;12.90;99.90
32428;DHT22;18882;50.952;4.366;2022-10-31T07:13:03;12.70;99.90
32428;DHT22;18882;50.952;4.366;2022-10-31T07:15:30;12.60;99.90
32428;DHT22;18882;50.952;4.366;2022-10-31T07:18:05;12.40;99.90
32428;DHT22;18882;50.952;4.366;2022-10-31T07:20:31;12.40;99.90
32428;DHT22;18882;50.952;4.366;2022-10-31T07:22:58;12.50;99.90
32428;DHT22;18882;50.952;4.366;2022-10-31T07:25:24;12.70;99.90
32428;DHT22;18882;50.952;4.366;2022-10-31T07:27:50;12.90;99.90
32428;DHT22;18882;50.952;4.366;2022-10-31T07:30:16;13.00;99.90
32428;DHT22;18882;50.952;4.366;2022-10-31T07:32:48;13.00;99.90
32428;DHT22;18882;50.952;4.366;2022-10-31T07:35:16;13.10;99.90
32428;DHT22;18882;50.952;4.366;2022-10-31T07:37:42;13.20;99.90
32428;DHT22;18882;50.952;4.366;2022-10-31T07:40:08;13.40;99.90
32428;DHT22;18882;50.952;4.366;2022-10-31T07:42:41;13.50;99.90
32428;DHT22;18882;50.952;4.366;2022-10-31T07:45:09;13.60;99.90
32428;DHT22;18882;50.952;4.366;2022-10-31T07:47:45;13.70;99.90
32428;DHT22;18882;50.952;4.366;2022-10-31T07:50:17;13.80;99.90
32428;DHT22;18882;50.952;4.366;2022-10-31T07:52:45;13.80;99.90
32428;DHT22;18882;50.952;4.366;2022-10-31T07:55:12;13.90;99.90
32428;DHT22;18882;50.952;4.366;2022-10-31T07:57:38;14.10;99.90
32428;DHT22;18882;50.952;4.366;2022-10-31T08:00:08;14.00;99.90
32428;DHT22;18882;50.952;4.366;2022-10-31T08:02:34;13.80;99.90
32428;DHT22;18882;50.952;4.366;2022-10-31T08:05:01;13.70;99.90
32428;DHT22;18882;50.952;4.366;2022-10-31T08:07:29;13.50;99.90
32428;DHT22;18882;50.952;4.366;2022-10-31T08:09:55;13.70;99.90
32428;DHT22;18882;50.952;4.366;2022-10-31T08:12:21;13.50;99.90
32428;DHT22;18882;50.952;4.366;2022-10-31T08:14:47;13.30;99.90
32428;DHT22;18882;50.952;4.366;2022-10-31T08:17:12;13.10;99.90
32428;DHT22;18882;50.952;4.366;2022-10-31T08:19:38;13.00;99.90
32428;DHT22;18882;50.952;4.366;2022-10-31T08:22:04;12.90;99.90
32428;DHT22;18882;50.952;4.366;2022-10-31T08:24:29;12.80;99.90
32428;DHT22;18882;50.952;4.366;2022-10-31T08:26:55;12.80;99.90
32428;DHT22;18882;50.952;4.366;2022-10-31T08:29:21;12.70;99.90
32428;DHT22;18882;50.952;4.366;2022-10-31T08:31:46;12.80;99.90
32428;DHT22;18882;50.952;4.366;2022-10-31T08:34:12;12.70;99.90
32428;DHT22;18882;50.952;4.366;2022-10-31T08:36:37;12.70;99.90
32428;DHT22;18882;50.952;4.366;2022-10-31T08:39:03;12.90;99.90
32428;DHT22;18882;50.952;4.366;2022-10-31T08:41:29;12.90;99.90
32428;DHT22;18882;50.952;4.366;2022-10-31T08:43:55;12.90;99.90
32428;DHT22;18882;50.952;4.366;2022-10-31T08:46:21;13.00;99.90
32428;DHT22;18882;50.952;4.366;2022-10-31T08:48:49;13.20;99.90
32428;DHT22;18882;50.952;4.366;2022-10-31T08:51:15;13.30;99.90
32428;DHT22;18882;50.952;4.366;2022-10-31T08:53:41;13.20;99.90
32428;DHT22;18882;50.952;4.366;2022-10-31T08:56:07;13.20;99.90
32428;DHT22;18882;50.952;4.366;2022-10-31T08:58:32;13.20;99.90
32428;DHT22;18882;50.952;4.366;2022-10-31T09:01:00;13.30;99.90
32428;DHT22;18882;50.952;4.366;2022-10-31T09:03:28;13.30;99.90
32428;DHT22;18882;50.952;4.366;2022-10-31T09:06:00;13.40;99.90
32428;DHT22;18882;50.952;4.366;2022-10-31T09:08:26;13.40;99.90
32428;DHT22;18882;50.952;4.366;2022-10-31T09:10:52;13.70;99.90
32428;DHT22;18882;50.952;4.366;2022-10-31T09:13:21;13.90;99.90
32428;DHT22;18882;50.952;4.366;2022-10-31T09:15:48;14.00;99.90
32428;DHT22;18882;50.952;4.366;2022-10-31T09:18:17;14.20;99.90
32428;DHT22;18882;50.952;4.366;2022-10-31T09:20:44;14.50;99.90
32428;DHT22;18882;50.952;4.366;2022-10-31T09:23:12;14.60;99.90
32428;DHT22;18882;50.952;4.366;2022-10-31T09:25:38;14.70;99.90
32428;DHT22;18882;50.952;4.366;2022-10-31T09:28:06;14.90;99.90
32428;DHT22;18882;50.952;4.366;2022-10-31T09:30:33;14.90;99.90
32428;DHT22;18882;50.952;4.366;2022-10-31T09:33:01;14.80;99.90
32428;DHT22;18882;50.952;4.366;2022-10-31T09:35:27;14.70;99.90
32428;DHT22;18882;50.952;4.366;2022-10-31T09:38:01;14.80;99.90
32428;DHT22;18882;50.952;4.366;2022-10-31T09:40:31;15.00;99.90
32428;DHT22;18882;50.952;4.366;2022-10-31T09:43:13;15.10;99.90
32428;DHT22;18882;50.952;4.366;2022-10-31T09:45:56;15.30;99.90
32428;DHT22;18882;50.952;4.366;2022-10-31T09:48:42;15.20;99.90
32428;DHT22;18882;50.952;4.366;2022-10-31T09:51:18;15.30;99.90
32428;DHT22;18882;50.952;4.366;2022-10-31T09:53:47;15.30;99.90
32428;DHT22;18882;50.952;4.366;2022-10-31T09:56:17;15.50;99.90
32428;DHT22;18882;50.952;4.366;2022-10-31T09:58:53;15.70;99.90
32428;DHT22;18882;50.952;4.366;2022-10-31T10:04:51;15.30;99.90
32428;DHT22;18882;50.952;4.366;2022-10-31T10:09:44;15.20;99.90
32428;DHT22;18882;50.952;4.366;2022-10-31T10:15:04;14.90;99.90
32428;DHT22;18882;50.952;4.366;2022-10-31T10:17:44;14.60;99.90
32428;DHT22;18882;50.952;4.366;2022-10-31T10:20:26;14.50;99.90
32428;DHT22;18882;50.952;4.366;2022-10-31T10:23:17;14.50;99.90
32428;DHT22;18882;50.952;4.366;2022-10-31T10:25:47;14.60;99.90
32428;DHT22;18882;50.952;4.366;2022-10-31T10:30:42;14.50;99.90
32428;DHT22;18882;50.952;4.366;2022-10-31T10:35:49;14.40;99.90
32428;DHT22;18882;50.952;4.366;2022-10-31T10:40:58;14.60;99.90
32428;DHT22;18882;50.952;4.366;2022-10-31T10:43:34;14.80;99.90
32428;DHT22;18882;50.952;4.366;2022-10-31T10:52:30;15.40;99.90
32428;DHT22;18882;50.952;4.366;2022-10-31T10:55:11;15.70;99.90
32428;DHT22;18882;50.952;4.366;2022-10-31T10:58:09;15.80;99.90
32428;DHT22;18882;50.952;4.366;2022-10-31T11:00:38;15.70;99.90
32428;DHT22;18882;50.952;4.366;2022-10-31T11:03:04;15.70;99.90
32428;DHT22;18882;50.952;4.366;2022-10-31T11:05:50;15.80;99.90
32428;DHT22;18882;50.952;4.366;2022-10-31T11:08:29;15.70;99.90
32428;DHT22;18882;50.952;4.366;2022-10-31T11:11:11;15.60;99.90
32428;DHT22;18882;50.952;4.366;2022-10-31T11:13:49;15.50;99.90
32428;DHT22;18882;50.952;4.366;2022-10-31T11:16:29;15.50;99.90
32428;DHT22;18882;50.952;4.366;2022-10-31T11:21:34;15.90;99.90
32428;DHT22;18882;50.952;4.366;2022-10-31T11:26:36;16.20;99.90
32428;DHT22;18882;50.952;4.366;2022-10-31T11:29:03;16.20;99.90
32428;DHT22;18882;50.952;4.366;2022-10-31T11:31:30;16.30;99.90
32428;DHT22;18882;50.952;4.366;2022-10-31T11:36:27;16.30;99.90
32428;DHT22;18882;50.952;4.366;2022-10-31T11:38:54;16.60;99.90
32428;DHT22;18882;50.952;4.366;2022-10-31T11:41:32;16.80;99.90
32428;DHT22;18882;50.952;4.366;2022-10-31T11:44:14;16.90;99.90
32428;DHT22;18882;50.952;4.366;2022-10-31T11:46:52;16.80;99.90
32428;DHT22;18882;50.952;4.366;2022-10-31T11:49:26;17.10;99.90
32428;DHT22;18882;50.952;4.366;2022-10-31T11:51:55;17.40;99.90
32428;DHT22;18882;50.952;4.366;2022-10-31T11:54:26;17.40;99.90
32428;DHT22;18882;50.952;4.366;2022-10-31T11:56:52;17.00;99.90
32428;DHT22;18882;50.952;4.366;2022-10-31T11:59:26;17.10;99.90
32428;DHT22;18882;50.952;4.366;2022-10-31T12:01:54;17.30;99.90
32428;DHT22;18882;50.952;4.366;2022-10-31T12:07:00;17.20;99.90
32428;DHT22;18882;50.952;4.366;2022-10-31T12:09:32;17.30;99.90
32428;DHT22;18882;50.952;4.366;2022-10-31T12:14:59;17.70;99.90
32428;DHT22;18882;50.952;4.366;2022-10-31T12:41:28;18.20;99.90
32428;DHT22;18882;50.952;4.366;2022-10-31T12:46:29;18.60;99.90
32428;DHT22;18882;50.952;4.366;2022-10-31T12:49:22;18.70;99.90
32428;DHT22;18882;50.952;4.366;2022-10-31T12:52:03;18.70;99.90
32428;DHT22;18882;50.952;4.366;2022-10-31T12:59:53;18.70;99.90
32428;DHT22;18882;50.952;4.366;2022-10-31T13:08:03;19.00;99.90
32428;DHT22;18882;50.952;4.366;2022-10-31T13:10:40;19.10;99.90
32428;DHT22;18882;50.952;4.366;2022-10-31T13:15:50;18.60;99.90
32428;DHT22;18882;50.952;4.366;2022-10-31T13:21:15;18.70;99.90
32428;DHT22;18882;50.952;4.366;2022-10-31T13:23:43;18.80;99.90
32428;DHT22;18882;50.952;4.366;2022-10-31T13:26:13;18.90;99.90
32428;DHT22;18882;50.952;4.366;2022-10-31T13:31:37;19.00;99.90
32428;DHT22;18882;50.952;4.366;2022-10-31T13:34:13;19.20;99.90
32428;DHT22;18882;50.952;4.366;2022-10-31T13:37:00;19.40;99.90
32428;DHT22;18882;50.952;4.366;2022-10-31T13:39:46;19.50;99.90
32428;DHT22;18882;50.952;4.366;2022-10-31T13:42:40;19.50;99.90
32428;DHT22;18882;50.952;4.366;2022-10-31T13:45:19;19.50;99.90
32428;DHT22;18882;50.952;4.366;2022-10-31T13:50:40;19.50;99.90
32428;DHT22;18882;50.952;4.366;2022-10-31T13:55:46;19.20;99.90
32428;DHT22;18882;50.952;4.366;2022-10-31T14:03:39;19.20;99.90
32428;DHT22;18882;50.952;4.366;2022-10-31T14:06:07;19.30;99.90
32428;DHT22;18882;50.952;4.366;2022-10-31T14:08:36;19.30;99.90
32428;DHT22;18882;50.952;4.366;2022-10-31T14:11:08;19.40;99.90
32428;DHT22;18882;50.952;4.366;2022-10-31T14:13:41;19.50;99.90
32428;DHT22;18882;50.952;4.366;2022-10-31T14:16:24;19.50;99.90
32428;DHT22;18882;50.952;4.366;2022-10-31T14:19:16;19.40;99.90
32428;DHT22;18882;50.952;4.366;2022-10-31T14:21:47;19.30;99.90
32428;DHT22;18882;50.952;4.366;2022-10-31T14:24:15;19.40;99.90
32428;DHT22;18882;50.952;4.366;2022-10-31T14:27:03;19.50;99.90
32428;DHT22;18882;50.952;4.366;2022-10-31T14:29:30;19.20;99.90
32428;DHT22;18882;50.952;4.366;2022-10-31T14:34:40;19.00;99.90
32428;DHT22;18882;50.952;4.366;2022-10-31T14:45:49;19.30;99.90
32428;DHT22;18882;50.952;4.366;2022-10-31T14:48:24;19.40;99.90
32428;DHT22;18882;50.952;4.366;2022-10-31T14:50:56;19.40;99.90
32428;DHT22;18882;50.952;4.366;2022-10-31T14:53:30;19.60;99.90
32428;DHT22;18882;50.952;4.366;2022-10-31T14:55:57;19.50;99.90
32428;DHT22;18882;50.952;4.366;2022-10-31T14:58:35;19.40;99.90
32428;DHT22;18882;50.952;4.366;2022-10-31T15:01:02;19.40;99.90
32428;DHT22;18882;50.952;4.366;2022-10-31T15:03:38;19.20;99.90
32428;DHT22;18882;50.952;4.366;2022-10-31T15:06:15;19.20;99.90
32428;DHT22;18882;50.952;4.366;2022-10-31T15:08:52;19.20;99.90
32428;DHT22;18882;50.952;4.366;2022-10-31T15:11:26;19.20;99.90
32428;DHT22;18882;50.952;4.366;2022-10-31T15:13:57;19.20;99.90
32428;DHT22;18882;50.952;4.366;2022-10-31T15:16:34;19.20;99.90
32428;DHT22;18882;50.952;4.366;2022-10-31T15:19:04;19.20;99.90
32428;DHT22;18882;50.952;4.366;2022-10-31T15:21:31;19.20;99.90
32428;DHT22;18882;50.952;4.366;2022-10-31T15:23:59;19.20;99.90
32428;DHT22;18882;50.952;4.366;2022-10-31T15:26:44;19.10;99.90
32428;DHT22;18882;50.952;4.366;2022-10-31T15:29:16;19.00;99.90
32428;DHT22;18882;50.952;4.366;2022-10-31T15:32:00;18.80;99.90
32428;DHT22;18882;50.952;4.366;2022-10-31T15:34:35;18.80;99.90
32428;DHT22;18882;50.952;4.366;2022-10-31T15:37:02;18.70;99.90
32428;DHT22;18882;50.952;4.366;2022-10-31T15:39:28;18.70;99.90
32428;DHT22;18882;50.952;4.366;2022-10-31T15:41:56;18.60;99.90
32428;DHT22;18882;50.952;4.366;2022-10-31T15:44:28;18.50;99.90
32428;DHT22;18882;50.952;4.366;2022-10-31T15:54:53;18.20;99.90
32428;DHT22;18882;50.952;4.366;2022-10-31T15:57:24;18.10;99.90
32428;DHT22;18882;50.952;4.366;2022-10-31T15:59:51;18.10;99.90
32428;DHT22;18882;50.952;4.366;2022-10-31T16:02:20;18.10;99.90
32428;DHT22;18882;50.952;4.366;2022-10-31T16:04:53;18.00;99.90
32428;DHT22;18882;50.952;4.366;2022-10-31T16:07:19;17.90;99.90
32428;DHT22;18882;50.952;4.366;2022-10-31T16:12:18;17.70;99.90
32428;DHT22;18882;50.952;4.366;2022-10-31T16:14:43;17.60;99.90
32428;DHT22;18882;50.952;4.366;2022-10-31T16:17:14;17.50;99.90
32428;DHT22;18882;50.952;4.366;2022-10-31T16:22:14;17.20;99.90
32428;DHT22;18882;50.952;4.366;2022-10-31T16:27:23;16.90;99.90
32428;DHT22;18882;50.952;4.366;2022-10-31T16:29:57;17.00;99.90
32428;DHT22;18882;50.952;4.366;2022-10-31T16:32:52;17.00;99.90
32428;DHT22;18882;50.952;4.366;2022-10-31T16:35:31;17.00;99.90
32428;DHT22;18882;50.952;4.366;2022-10-31T16:37:57;17.00;99.90
32428;DHT22;18882;50.952;4.366;2022-10-31T16:40:23;17.00;99.90
32428;DHT22;18882;50.952;4.366;2022-10-31T16:42:49;17.00;99.90
32428;DHT22;18882;50.952;4.366;2022-10-31T16:45:18;16.80;99.90
32428;DHT22;18882;50.952;4.366;2022-10-31T16:47:44;16.80;99.90
32428;DHT22;18882;50.952;4.366;2022-10-31T16:50:25;16.80;99.90
32428;DHT22;18882;50.952;4.366;2022-10-31T16:52:51;16.70;99.90
32428;DHT22;18882;50.952;4.366;2022-10-31T16:55:18;16.70;99.90
32428;DHT22;18882;50.952;4.366;2022-10-31T16:57:55;16.60;99.90
32428;DHT22;18882;50.952;4.366;2022-10-31T17:00:24;16.60;99.90
32428;DHT22;18882;50.952;4.366;2022-10-31T17:02:54;16.50;99.90
32428;DHT22;18882;50.952;4.366;2022-10-31T17:05:22;16.50;99.90
32428;DHT22;18882;50.952;4.366;2022-10-31T17:07:57;16.50;99.90
32428;DHT22;18882;50.952;4.366;2022-10-31T17:10:23;16.40;99.90
32428;DHT22;18882;50.952;4.366;2022-10-31T17:12:49;16.40;99.90
32428;DHT22;18882;50.952;4.366;2022-10-31T17:15:16;16.30;99.90
32428;DHT22;18882;50.952;4.366;2022-10-31T17:17:43;16.30;99.90
32428;DHT22;18882;50.952;4.366;2022-10-31T17:20:17;16.20;99.90
32428;DHT22;18882;50.952;4.366;2022-10-31T17:22:43;16.10;99.90
32428;DHT22;18882;50.952;4.366;2022-10-31T17:25:17;16.10;99.90
32428;DHT22;18882;50.952;4.366;2022-10-31T17:27:43;16.00;99.90
32428;DHT22;18882;50.952;4.366;2022-10-31T17:30:11;16.00;99.90
32428;DHT22;18882;50.952;4.366;2022-10-31T17:32:37;16.00;99.90
32428;DHT22;18882;50.952;4.366;2022-10-31T17:35:04;15.90;99.90
32428;DHT22;18882;50.952;4.366;2022-10-31T17:37:29;15.90;99.90
32428;DHT22;18882;50.952;4.366;2022-10-31T17:39:55;15.90;99.90
32428;DHT22;18882;50.952;4.366;2022-10-31T17:42:30;15.80;99.90
32428;DHT22;18882;50.952;4.366;2022-10-31T17:44:56;15.80;99.90
32428;DHT22;18882;50.952;4.366;2022-10-31T17:47:22;15.70;99.90
32428;DHT22;18882;50.952;4.366;2022-10-31T17:49:47;15.70;99.90
32428;DHT22;18882;50.952;4.366;2022-10-31T17:52:13;15.80;99.90
32428;DHT22;18882;50.952;4.366;2022-10-31T17:54:39;15.80;99.90
32428;DHT22;18882;50.952;4.366;2022-10-31T17:57:04;15.70;99.90
32428;DHT22;18882;50.952;4.366;2022-10-31T17:59:30;15.70;99.90
32428;DHT22;18882;50.952;4.366;2022-10-31T18:01:56;15.80;99.90
32428;DHT22;18882;50.952;4.366;2022-10-31T18:04:22;15.80;99.90
32428;DHT22;18882;50.952;4.366;2022-10-31T18:06:48;15.90;99.90
32428;DHT22;18882;50.952;4.366;2022-10-31T18:09:16;15.90;99.90
32428;DHT22;18882;50.952;4.366;2022-10-31T18:11:48;15.80;99.90